01:37 Rennrad Sankt Erhard - Bruck an der Mur - Sankt Erhard
Ort Sankt Erhard Datum 21.09.2016 16:51:59
Kategorie Rennrad
Distanz 50,10 Kilometer Steigung 383,0 Meter Gefälle -387,0 Meter
Gesamt Zeit 01:37:15 Aktiv 01:37:15 Pause 00:00:00
Durchs. Tempo 30,9 km/h Tempo max. 45,8 km/h Tempo min. 19,8 km/h
Kalorien 0 Durchs. HF 130 BPM HF max. 150 BPM
Wetter 13 °C PartClouds Min/Max: 11,5 °C/14,4 °C; Druck: 1013,2 mbar; Rel. Feuchte: 63,6%; Taupunkt: 6,1 °C; Windgeschwindigkeit: 2,3 km/h; Niederschlag: 0,0mm
Ausrüstung Continental - Grand Prix 4000 S II 25-622
Poison - Rennrad
Bontrager - RXL Road
Shimano - HG CN-7901 Dura Ace
Notiz Sankt Erhard - Bruck an der Mur - Sankt Erhard  ... trocken, frisch, leicht windig, recht locker ... garmin connect
Splits
Distanz (km) Gesamt Zeit Split Zeit Split Tempo Split Tempo Höhenprofil (m)
1,00 00:01:31 00:01:31 00:01:31 39,4 -23,28
2,00 00:02:58 00:01:26 00:01:27 41,5 -21,32
3,00 00:04:24 00:01:26 00:01:26 41,8 -21,33
4,00 00:05:51 00:01:26 00:01:27 41,4 -23,52
5,00 00:07:25 00:01:34 00:01:34 38,1 -15,31
6,00 00:08:58 00:01:32 00:01:33 38,9 -19,06
7,00 00:10:34 00:01:36 00:01:36 37,5 -14,60
8,00 00:11:59 00:01:25 00:01:26 42,0 -20,87
9,00 00:13:24 00:01:24 00:01:25 42,5 -20,46
10,00 00:14:49 00:01:24 00:01:25 42,6 -19,80
11,00 00:16:17 00:01:28 00:01:28 40,8 -18,22
12,00 00:17:47 00:01:29 00:01:30 40,1 -14,55
13,00 00:19:24 00:01:37 00:01:38 36,9 -6,17
14,00 00:21:10 00:01:46 00:01:46 33,9 -10,74
15,00 00:23:08 00:01:57 00:01:58 30,6 5,26
16,00 00:24:55 00:01:46 00:01:47 33,8 -3,35
17,00 00:27:06 00:02:11 00:02:11 27,4 13,43
18,00 00:28:59 00:01:53 00:01:53 31,8 1,83
19,00 00:30:46 00:01:46 00:01:47 33,7 -4,60
20,00 00:32:43 00:01:56 00:01:57 30,9 4,24
21,00 00:34:44 00:02:01 00:02:01 29,7 5,89
22,00 00:36:36 00:01:52 00:01:52 32,1 -3,62
23,00 00:38:43 00:02:06 00:02:06 28,5 8,03
24,00 00:40:29 00:01:46 00:01:47 33,8 -4,95
25,00 00:42:30 00:02:01 00:02:01 29,7 -4,89
26,00 00:44:32 00:02:01 00:02:01 29,7 0,62
27,00 00:46:34 00:02:01 00:02:02 29,5 7,72
28,00 00:48:17 00:01:43 00:01:43 34,9 -8,03
29,00 00:50:10 00:01:53 00:01:54 31,7 -1,16
30,00 00:52:13 00:02:02 00:02:03 29,4 5,79
31,00 00:53:52 00:01:39 00:01:39 36,3 -8,70
32,00 00:55:47 00:01:54 00:01:54 31,5 2,23
33,00 00:57:40 00:01:53 00:01:54 31,6 0,10
34,00 00:59:15 00:01:34 00:01:35 38,1 -8,93
35,00 01:01:05 00:01:50 00:01:50 32,7 -2,67
36,00 01:02:53 00:01:48 00:01:48 33,3 -3,27
37,00 01:04:57 00:02:03 00:02:04 29,1 2,30
38,00 01:07:08 00:02:11 00:02:11 27,4 10,24
39,00 01:09:29 00:02:20 00:02:20 25,6 12,95
40,00 01:11:54 00:02:25 00:02:25 24,8 15,86
41,00 01:14:18 00:02:24 00:02:24 25,0 17,63
42,00 01:16:52 00:02:33 00:02:34 23,4 21,77
43,00 01:19:25 00:02:33 00:02:33 23,5 22,77
44,00 01:21:48 00:02:23 00:02:23 25,1 14,12
45,00 01:24:12 00:02:23 00:02:24 25,0 17,34
46,00 01:26:33 00:02:20 00:02:20 25,6 17,23
47,00 01:29:04 00:02:31 00:02:32 23,8 20,99
48,00 01:31:35 00:02:30 00:02:30 23,9 19,54
49,00 01:34:09 00:02:34 00:02:35 23,2 22,39
50,00 01:36:48 00:02:38 00:02:38 22,8 26,53
50,18 01:37:15 00:00:26 00:02:31 23,9 3,29